sensor_id;sensor_type;location;lat;lon;timestamp;P1;durP1;ratioP1;P2;durP2;ratioP2
40501;SDS011;29631;49.168;9.848;2023-07-16T00:00:30;1.30;;;1.30;;
40501;SDS011;29631;49.168;9.848;2023-07-16T00:02:56;1.73;;;1.40;;
40501;SDS011;29631;49.168;9.848;2023-07-16T00:05:21;3.10;;;1.50;;
40501;SDS011;29631;49.168;9.848;2023-07-16T00:07:47;1.35;;;1.25;;
40501;SDS011;29631;49.168;9.848;2023-07-16T00:10:13;1.55;;;1.45;;
40501;SDS011;29631;49.168;9.848;2023-07-16T00:12:39;1.73;;;1.58;;
40501;SDS011;29631;49.168;9.848;2023-07-16T00:15:05;1.45;;;1.35;;
40501;SDS011;29631;49.168;9.848;2023-07-16T00:17:33;1.67;;;1.27;;
40501;SDS011;29631;49.168;9.848;2023-07-16T00:19:59;1.55;;;1.40;;
40501;SDS011;29631;49.168;9.848;2023-07-16T00:22:25;1.63;;;1.52;;
40501;SDS011;29631;49.168;9.848;2023-07-16T00:24:50;1.33;;;1.15;;
40501;SDS011;29631;49.168;9.848;2023-07-16T00:27:17;1.40;;;1.40;;
40501;SDS011;29631;49.168;9.848;2023-07-16T00:29:43;2.50;;;1.30;;
40501;SDS011;29631;49.168;9.848;2023-07-16T00:32:08;1.45;;;1.35;;
40501;SDS011;29631;49.168;9.848;2023-07-16T00:34:34;1.25;;;1.20;;
40501;SDS011;29631;49.168;9.848;2023-07-16T00:37:00;2.17;;;1.25;;
40501;SDS011;29631;49.168;9.848;2023-07-16T00:39:28;1.10;;;1.10;;
40501;SDS011;29631;49.168;9.848;2023-07-16T00:41:54;2.15;;;1.17;;
40501;SDS011;29631;49.168;9.848;2023-07-16T00:44:21;1.98;;;1.27;;
40501;SDS011;29631;49.168;9.848;2023-07-16T00:46:47;1.10;;;1.10;;
40501;SDS011;29631;49.168;9.848;2023-07-16T00:49:13;1.27;;;1.00;;
40501;SDS011;29631;49.168;9.848;2023-07-16T00:51:38;1.38;;;1.30;;
40501;SDS011;29631;49.168;9.848;2023-07-16T00:54:05;1.95;;;1.40;;
40501;SDS011;29631;49.168;9.848;2023-07-16T00:56:31;1.10;;;1.10;;
40501;SDS011;29631;49.168;9.848;2023-07-16T00:58:57;1.10;;;1.10;;
40501;SDS011;29631;49.168;9.848;2023-07-16T01:01:23;0.90;;;0.90;;
40501;SDS011;29631;49.168;9.848;2023-07-16T01:03:49;0.93;;;0.90;;
40501;SDS011;29631;49.168;9.848;2023-07-16T01:09:01;1.67;;;1.00;;
40501;SDS011;29631;49.168;9.848;2023-07-16T01:11:32;1.00;;;1.00;;
40501;SDS011;29631;49.168;9.848;2023-07-16T01:14:00;1.08;;;1.08;;
40501;SDS011;29631;49.168;9.848;2023-07-16T01:16:27;1.00;;;1.00;;
40501;SDS011;29631;49.168;9.848;2023-07-16T01:18:53;0.80;;;0.80;;
40501;SDS011;29631;49.168;9.848;2023-07-16T01:21:20;1.02;;;1.02;;
40501;SDS011;29631;49.168;9.848;2023-07-16T01:29:54;0.85;;;0.85;;
40501;SDS011;29631;49.168;9.848;2023-07-16T01:32:33;0.73;;;0.73;;
40501;SDS011;29631;49.168;9.848;2023-07-16T01:35:01;0.90;;;0.90;;
40501;SDS011;29631;49.168;9.848;2023-07-16T01:37:30;1.00;;;1.00;;
40501;SDS011;29631;49.168;9.848;2023-07-16T01:39:56;1.00;;;0.80;;
40501;SDS011;29631;49.168;9.848;2023-07-16T01:42:22;0.90;;;0.90;;
40501;SDS011;29631;49.168;9.848;2023-07-16T01:44:48;0.90;;;0.90;;
40501;SDS011;29631;49.168;9.848;2023-07-16T01:50:03;0.90;;;0.90;;
40501;SDS011;29631;49.168;9.848;2023-07-16T01:52:29;0.80;;;0.80;;
40501;SDS011;29631;49.168;9.848;2023-07-16T01:54:54;0.85;;;0.85;;
40501;SDS011;29631;49.168;9.848;2023-07-16T01:57:20;1.10;;;0.95;;
40501;SDS011;29631;49.168;9.848;2023-07-16T01:59:46;1.00;;;0.98;;
40501;SDS011;29631;49.168;9.848;2023-07-16T02:02:11;0.90;;;0.90;;
40501;SDS011;29631;49.168;9.848;2023-07-16T02:04:37;0.95;;;0.95;;
40501;SDS011;29631;49.168;9.848;2023-07-16T02:07:03;1.27;;;0.90;;
40501;SDS011;29631;49.168;9.848;2023-07-16T02:09:29;0.98;;;0.90;;
40501;SDS011;29631;49.168;9.848;2023-07-16T02:11:55;0.82;;;0.82;;
40501;SDS011;29631;49.168;9.848;2023-07-16T02:14:20;0.73;;;0.73;;
40501;SDS011;29631;49.168;9.848;2023-07-16T02:16:46;0.90;;;0.90;;
40501;SDS011;29631;49.168;9.848;2023-07-16T02:19:12;0.80;;;0.80;;
40501;SDS011;29631;49.168;9.848;2023-07-16T02:21:38;0.85;;;0.85;;
40501;SDS011;29631;49.168;9.848;2023-07-16T02:24:03;0.98;;;0.98;;
40501;SDS011;29631;49.168;9.848;2023-07-16T02:26:29;1.38;;;0.98;;
40501;SDS011;29631;49.168;9.848;2023-07-16T02:28:55;1.00;;;1.00;;
40501;SDS011;29631;49.168;9.848;2023-07-16T02:31:21;0.90;;;0.90;;
40501;SDS011;29631;49.168;9.848;2023-07-16T02:33:47;2.47;;;1.17;;
40501;SDS011;29631;49.168;9.848;2023-07-16T02:36:12;0.98;;;0.98;;
40501;SDS011;29631;49.168;9.848;2023-07-16T02:38:38;1.00;;;1.00;;
40501;SDS011;29631;49.168;9.848;2023-07-16T02:41:04;1.00;;;1.00;;
40501;SDS011;29631;49.168;9.848;2023-07-16T02:43:29;1.05;;;1.05;;
40501;SDS011;29631;49.168;9.848;2023-07-16T02:45:55;0.93;;;0.93;;
40501;SDS011;29631;49.168;9.848;2023-07-16T02:48:21;1.00;;;1.00;;
40501;SDS011;29631;49.168;9.848;2023-07-16T02:50:46;0.93;;;0.90;;
40501;SDS011;29631;49.168;9.848;2023-07-16T02:53:12;1.10;;;0.95;;
40501;SDS011;29631;49.168;9.848;2023-07-16T02:55:38;1.10;;;1.00;;
40501;SDS011;29631;49.168;9.848;2023-07-16T02:58:04;1.20;;;1.20;;
40501;SDS011;29631;49.168;9.848;2023-07-16T03:00:30;1.65;;;1.17;;
40501;SDS011;29631;49.168;9.848;2023-07-16T03:02:57;1.10;;;1.10;;
40501;SDS011;29631;49.168;9.848;2023-07-16T03:05:24;1.00;;;0.95;;
40501;SDS011;29631;49.168;9.848;2023-07-16T03:07:51;1.02;;;1.02;;
40501;SDS011;29631;49.168;9.848;2023-07-16T03:10:17;1.00;;;1.00;;
40501;SDS011;29631;49.168;9.848;2023-07-16T03:12:43;1.17;;;1.17;;
40501;SDS011;29631;49.168;9.848;2023-07-16T03:15:09;2.42;;;1.02;;
40501;SDS011;29631;49.168;9.848;2023-07-16T03:17:35;1.98;;;1.30;;
40501;SDS011;29631;49.168;9.848;2023-07-16T03:20:01;1.00;;;1.00;;
40501;SDS011;29631;49.168;9.848;2023-07-16T03:22:29;1.30;;;1.30;;
40501;SDS011;29631;49.168;9.848;2023-07-16T03:24:55;1.20;;;1.20;;
40501;SDS011;29631;49.168;9.848;2023-07-16T03:27:20;1.10;;;1.10;;
40501;SDS011;29631;49.168;9.848;2023-07-16T03:29:46;1.23;;;1.00;;
40501;SDS011;29631;49.168;9.848;2023-07-16T03:32:12;0.93;;;0.93;;
40501;SDS011;29631;49.168;9.848;2023-07-16T03:34:38;1.17;;;1.05;;
40501;SDS011;29631;49.168;9.848;2023-07-16T03:37:03;1.10;;;1.10;;
40501;SDS011;29631;49.168;9.848;2023-07-16T03:39:29;1.05;;;1.02;;
40501;SDS011;29631;49.168;9.848;2023-07-16T03:41:55;1.23;;;1.13;;
40501;SDS011;29631;49.168;9.848;2023-07-16T03:44:20;1.20;;;1.10;;
40501;SDS011;29631;49.168;9.848;2023-07-16T03:46:46;1.05;;;1.05;;
40501;SDS011;29631;49.168;9.848;2023-07-16T03:49:12;1.85;;;1.30;;
40501;SDS011;29631;49.168;9.848;2023-07-16T03:51:38;1.77;;;1.30;;
40501;SDS011;29631;49.168;9.848;2023-07-16T03:54:03;1.30;;;1.30;;
40501;SDS011;29631;49.168;9.848;2023-07-16T03:56:29;1.35;;;1.17;;
40501;SDS011;29631;49.168;9.848;2023-07-16T03:58:55;1.60;;;1.10;;
40501;SDS011;29631;49.168;9.848;2023-07-16T04:01:20;1.50;;;1.40;;
40501;SDS011;29631;49.168;9.848;2023-07-16T04:03:46;2.50;;;1.40;;
40501;SDS011;29631;49.168;9.848;2023-07-16T04:06:12;1.52;;;1.30;;
40501;SDS011;29631;49.168;9.848;2023-07-16T04:08:39;1.00;;;1.00;;
40501;SDS011;29631;49.168;9.848;2023-07-16T04:11:05;1.17;;;1.10;;
40501;SDS011;29631;49.168;9.848;2023-07-16T04:13:31;1.20;;;1.10;;
40501;SDS011;29631;49.168;9.848;2023-07-16T04:15:57;1.83;;;1.20;;
40501;SDS011;29631;49.168;9.848;2023-07-16T04:18:26;1.25;;;1.00;;
40501;SDS011;29631;49.168;9.848;2023-07-16T04:20:53;1.38;;;1.27;;
40501;SDS011;29631;49.168;9.848;2023-07-16T04:23:19;1.33;;;1.25;;
40501;SDS011;29631;49.168;9.848;2023-07-16T04:25:45;1.20;;;1.10;;
40501;SDS011;29631;49.168;9.848;2023-07-16T04:28:11;1.00;;;1.00;;
40501;SDS011;29631;49.168;9.848;2023-07-16T04:30:37;1.60;;;1.30;;
40501;SDS011;29631;49.168;9.848;2023-07-16T04:33:03;2.45;;;1.38;;
40501;SDS011;29631;49.168;9.848;2023-07-16T04:35:29;1.52;;;1.17;;
40501;SDS011;29631;49.168;9.848;2023-07-16T04:37:55;1.20;;;1.20;;
40501;SDS011;29631;49.168;9.848;2023-07-16T04:40:21;1.20;;;1.20;;
40501;SDS011;29631;49.168;9.848;2023-07-16T04:42:47;2.13;;;1.20;;
40501;SDS011;29631;49.168;9.848;2023-07-16T04:45:13;1.52;;;1.17;;
40501;SDS011;29631;49.168;9.848;2023-07-16T04:47:38;1.50;;;1.40;;
40501;SDS011;29631;49.168;9.848;2023-07-16T04:50:04;1.70;;;1.13;;
40501;SDS011;29631;49.168;9.848;2023-07-16T04:52:31;2.53;;;1.40;;
40501;SDS011;29631;49.168;9.848;2023-07-16T04:54:56;1.83;;;1.30;;
40501;SDS011;29631;49.168;9.848;2023-07-16T04:57:22;1.40;;;1.30;;
40501;SDS011;29631;49.168;9.848;2023-07-16T04:59:48;1.35;;;1.23;;
40501;SDS011;29631;49.168;9.848;2023-07-16T05:02:14;1.50;;;1.40;;
40501;SDS011;29631;49.168;9.848;2023-07-16T05:04:42;1.35;;;1.25;;
40501;SDS011;29631;49.168;9.848;2023-07-16T05:07:09;1.63;;;1.35;;
40501;SDS011;29631;49.168;9.848;2023-07-16T05:09:35;5.38;;;1.52;;
40501;SDS011;29631;49.168;9.848;2023-07-16T05:12:01;3.42;;;1.52;;
40501;SDS011;29631;49.168;9.848;2023-07-16T05:14:27;1.25;;;1.15;;
40501;SDS011;29631;49.168;9.848;2023-07-16T05:16:54;1.33;;;1.23;;
40501;SDS011;29631;49.168;9.848;2023-07-16T05:19:21;3.13;;;1.40;;
40501;SDS011;29631;49.168;9.848;2023-07-16T05:21:47;1.95;;;1.30;;
40501;SDS011;29631;49.168;9.848;2023-07-16T05:24:13;2.58;;;1.40;;
40501;SDS011;29631;49.168;9.848;2023-07-16T05:26:39;2.40;;;1.23;;
40501;SDS011;29631;49.168;9.848;2023-07-16T05:29:04;2.55;;;1.30;;
40501;SDS011;29631;49.168;9.848;2023-07-16T05:31:30;1.70;;;1.33;;
40501;SDS011;29631;49.168;9.848;2023-07-16T05:33:56;1.60;;;1.50;;
40501;SDS011;29631;49.168;9.848;2023-07-16T05:36:21;2.00;;;1.40;;
40501;SDS011;29631;49.168;9.848;2023-07-16T05:38:47;1.70;;;1.55;;
40501;SDS011;29631;49.168;9.848;2023-07-16T05:41:13;1.70;;;1.38;;
40501;SDS011;29631;49.168;9.848;2023-07-16T05:43:38;6.30;;;1.63;;
40501;SDS011;29631;49.168;9.848;2023-07-16T05:46:04;1.70;;;1.58;;
40501;SDS011;29631;49.168;9.848;2023-07-16T05:48:30;1.58;;;1.48;;
40501;SDS011;29631;49.168;9.848;2023-07-16T05:50:56;3.33;;;1.70;;
40501;SDS011;29631;49.168;9.848;2023-07-16T05:53:22;1.52;;;1.42;;
40501;SDS011;29631;49.168;9.848;2023-07-16T05:55:48;2.10;;;1.67;;
40501;SDS011;29631;49.168;9.848;2023-07-16T05:58:14;3.60;;;1.60;;
40501;SDS011;29631;49.168;9.848;2023-07-16T06:00:41;1.85;;;1.60;;
40501;SDS011;29631;49.168;9.848;2023-07-16T06:03:07;3.15;;;1.88;;
40501;SDS011;29631;49.168;9.848;2023-07-16T06:05:32;3.47;;;1.60;;
40501;SDS011;29631;49.168;9.848;2023-07-16T06:07:59;2.33;;;1.58;;
40501;SDS011;29631;49.168;9.848;2023-07-16T06:10:26;1.52;;;1.42;;
40501;SDS011;29631;49.168;9.848;2023-07-16T06:12:52;2.60;;;1.40;;
40501;SDS011;29631;49.168;9.848;2023-07-16T06:15:18;1.60;;;1.50;;
40501;SDS011;29631;49.168;9.848;2023-07-16T06:17:43;1.30;;;1.25;;
40501;SDS011;29631;49.168;9.848;2023-07-16T06:20:09;1.80;;;1.35;;
40501;SDS011;29631;49.168;9.848;2023-07-16T06:22:36;2.95;;;1.67;;
40501;SDS011;29631;49.168;9.848;2023-07-16T06:25:02;1.73;;;1.63;;
40501;SDS011;29631;49.168;9.848;2023-07-16T06:27:29;1.73;;;1.60;;
40501;SDS011;29631;49.168;9.848;2023-07-16T06:29:55;1.60;;;1.50;;
40501;SDS011;29631;49.168;9.848;2023-07-16T06:32:21;1.95;;;1.60;;
40501;SDS011;29631;49.168;9.848;2023-07-16T06:34:46;4.70;;;1.42;;
40501;SDS011;29631;49.168;9.848;2023-07-16T06:37:12;1.67;;;1.58;;
40501;SDS011;29631;49.168;9.848;2023-07-16T06:39:38;2.22;;;1.70;;
40501;SDS011;29631;49.168;9.848;2023-07-16T06:42:04;2.00;;;1.73;;
40501;SDS011;29631;49.168;9.848;2023-07-16T06:44:30;2.25;;;1.80;;
40501;SDS011;29631;49.168;9.848;2023-07-16T06:46:55;2.53;;;1.63;;
40501;SDS011;29631;49.168;9.848;2023-07-16T06:49:22;1.40;;;1.33;;
40501;SDS011;29631;49.168;9.848;2023-07-16T06:51:48;2.17;;;1.40;;
40501;SDS011;29631;49.168;9.848;2023-07-16T06:54:14;2.50;;;1.80;;
40501;SDS011;29631;49.168;9.848;2023-07-16T06:56:40;1.98;;;1.77;;
40501;SDS011;29631;49.168;9.848;2023-07-16T06:59:05;2.92;;;1.50;;
40501;SDS011;29631;49.168;9.848;2023-07-16T07:01:31;1.80;;;1.58;;
40501;SDS011;29631;49.168;9.848;2023-07-16T07:03:57;2.17;;;1.58;;
40501;SDS011;29631;49.168;9.848;2023-07-16T07:06:22;2.53;;;1.58;;
40501;SDS011;29631;49.168;9.848;2023-07-16T07:08:48;2.40;;;1.70;;
40501;SDS011;29631;49.168;9.848;2023-07-16T07:11:14;2.35;;;1.40;;
40501;SDS011;29631;49.168;9.848;2023-07-16T07:13:40;1.92;;;1.60;;
40501;SDS011;29631;49.168;9.848;2023-07-16T07:16:07;1.60;;;1.50;;
40501;SDS011;29631;49.168;9.848;2023-07-16T07:18:32;1.95;;;1.52;;
40501;SDS011;29631;49.168;9.848;2023-07-16T07:20:58;2.55;;;1.70;;
40501;SDS011;29631;49.168;9.848;2023-07-16T07:23:24;1.60;;;1.50;;
40501;SDS011;29631;49.168;9.848;2023-07-16T07:25:50;4.28;;;1.63;;
40501;SDS011;29631;49.168;9.848;2023-07-16T07:28:16;5.72;;;1.60;;
40501;SDS011;29631;49.168;9.848;2023-07-16T07:30:43;4.45;;;1.55;;
40501;SDS011;29631;49.168;9.848;2023-07-16T07:33:09;2.22;;;1.55;;
40501;SDS011;29631;49.168;9.848;2023-07-16T07:35:35;2.70;;;1.70;;
40501;SDS011;29631;49.168;9.848;2023-07-16T07:38:01;2.45;;;1.90;;
40501;SDS011;29631;49.168;9.848;2023-07-16T07:40:27;3.72;;;1.73;;
40501;SDS011;29631;49.168;9.848;2023-07-16T07:42:53;1.90;;;1.60;;
40501;SDS011;29631;49.168;9.848;2023-07-16T07:45:18;2.35;;;1.77;;
40501;SDS011;29631;49.168;9.848;2023-07-16T07:47:44;1.77;;;1.50;;
40501;SDS011;29631;49.168;9.848;2023-07-16T07:50:10;5.78;;;2.03;;
40501;SDS011;29631;49.168;9.848;2023-07-16T07:52:36;1.85;;;1.50;;
40501;SDS011;29631;49.168;9.848;2023-07-16T07:55:02;2.45;;;1.90;;
40501;SDS011;29631;49.168;9.848;2023-07-16T07:57:29;5.68;;;2.13;;
40501;SDS011;29631;49.168;9.848;2023-07-16T07:59:54;2.05;;;1.50;;
40501;SDS011;29631;49.168;9.848;2023-07-16T08:02:23;5.50;;;1.83;;
40501;SDS011;29631;49.168;9.848;2023-07-16T08:04:53;3.30;;;1.88;;
40501;SDS011;29631;49.168;9.848;2023-07-16T08:07:20;3.65;;;1.90;;
40501;SDS011;29631;49.168;9.848;2023-07-16T08:09:46;1.88;;;1.60;;
40501;SDS011;29631;49.168;9.848;2023-07-16T08:12:13;2.03;;;1.83;;
40501;SDS011;29631;49.168;9.848;2023-07-16T08:14:39;1.92;;;1.73;;
40501;SDS011;29631;49.168;9.848;2023-07-16T08:17:06;1.95;;;1.70;;
40501;SDS011;29631;49.168;9.848;2023-07-16T08:19:32;1.67;;;1.55;;
40501;SDS011;29631;49.168;9.848;2023-07-16T08:21:58;5.47;;;1.75;;
40501;SDS011;29631;49.168;9.848;2023-07-16T08:24:24;2.60;;;2.00;;
40501;SDS011;29631;49.168;9.848;2023-07-16T08:26:50;1.65;;;1.55;;
40501;SDS011;29631;49.168;9.848;2023-07-16T08:29:16;4.75;;;2.00;;
40501;SDS011;29631;49.168;9.848;2023-07-16T08:31:42;5.18;;;1.77;;
40501;SDS011;29631;49.168;9.848;2023-07-16T08:34:08;2.67;;;2.05;;
40501;SDS011;29631;49.168;9.848;2023-07-16T08:36:34;2.08;;;1.65;;
40501;SDS011;29631;49.168;9.848;2023-07-16T08:39:01;2.38;;;1.77;;
40501;SDS011;29631;49.168;9.848;2023-07-16T08:41:27;1.98;;;1.70;;
40501;SDS011;29631;49.168;9.848;2023-07-16T08:43:53;1.80;;;1.52;;
40501;SDS011;29631;49.168;9.848;2023-07-16T08:46:19;2.25;;;1.58;;
40501;SDS011;29631;49.168;9.848;2023-07-16T08:48:45;3.25;;;1.70;;
40501;SDS011;29631;49.168;9.848;2023-07-16T08:51:14;1.63;;;1.52;;
40501;SDS011;29631;49.168;9.848;2023-07-16T08:53:41;4.57;;;2.00;;
40501;SDS011;29631;49.168;9.848;2023-07-16T08:56:07;4.20;;;2.03;;
40501;SDS011;29631;49.168;9.848;2023-07-16T08:58:33;2.30;;;1.83;;
40501;SDS011;29631;49.168;9.848;2023-07-16T09:01:00;4.45;;;2.17;;
40501;SDS011;29631;49.168;9.848;2023-07-16T09:03:26;3.03;;;1.98;;
40501;SDS011;29631;49.168;9.848;2023-07-16T09:05:53;2.75;;;1.55;;
40501;SDS011;29631;49.168;9.848;2023-07-16T09:08:19;3.10;;;1.75;;
40501;SDS011;29631;49.168;9.848;2023-07-16T09:10:52;1.80;;;1.50;;
40501;SDS011;29631;49.168;9.848;2023-07-16T09:13:22;2.55;;;1.75;;
40501;SDS011;29631;49.168;9.848;2023-07-16T09:15:54;3.28;;;1.70;;
40501;SDS011;29631;49.168;9.848;2023-07-16T09:18:22;3.58;;;1.80;;
40501;SDS011;29631;49.168;9.848;2023-07-16T09:21:00;3.15;;;1.63;;
40501;SDS011;29631;49.168;9.848;2023-07-16T09:23:29;1.83;;;1.60;;
40501;SDS011;29631;49.168;9.848;2023-07-16T09:25:56;1.55;;;1.45;;
40501;SDS011;29631;49.168;9.848;2023-07-16T09:28:22;1.77;;;1.67;;
40501;SDS011;29631;49.168;9.848;2023-07-16T09:30:48;1.98;;;1.70;;
40501;SDS011;29631;49.168;9.848;2023-07-16T09:33:21;2.80;;;1.85;;
40501;SDS011;29631;49.168;9.848;2023-07-16T09:35:51;2.92;;;1.80;;
40501;SDS011;29631;49.168;9.848;2023-07-16T09:38:17;2.72;;;1.83;;
40501;SDS011;29631;49.168;9.848;2023-07-16T09:40:43;1.90;;;1.70;;
40501;SDS011;29631;49.168;9.848;2023-07-16T09:43:10;1.75;;;1.55;;
40501;SDS011;29631;49.168;9.848;2023-07-16T09:45:37;3.03;;;1.50;;
40501;SDS011;29631;49.168;9.848;2023-07-16T09:48:03;3.50;;;1.60;;
40501;SDS011;29631;49.168;9.848;2023-07-16T09:50:32;3.42;;;1.60;;
40501;SDS011;29631;49.168;9.848;2023-07-16T09:52:59;2.47;;;1.65;;
40501;SDS011;29631;49.168;9.848;2023-07-16T09:55:27;2.65;;;1.70;;
40501;SDS011;29631;49.168;9.848;2023-07-16T09:57:56;2.00;;;1.77;;
40501;SDS011;29631;49.168;9.848;2023-07-16T10:00:24;2.15;;;1.92;;
40501;SDS011;29631;49.168;9.848;2023-07-16T10:02:51;1.95;;;1.80;;
40501;SDS011;29631;49.168;9.848;2023-07-16T10:05:18;4.03;;;1.83;;
40501;SDS011;29631;49.168;9.848;2023-07-16T10:07:59;4.82;;;1.50;;
40501;SDS011;29631;49.168;9.848;2023-07-16T10:10:42;1.90;;;1.40;;
40501;SDS011;29631;49.168;9.848;2023-07-16T10:13:13;1.50;;;1.50;;
40501;SDS011;29631;49.168;9.848;2023-07-16T10:15:50;3.22;;;1.90;;
40501;SDS011;29631;49.168;9.848;2023-07-16T10:18:29;2.17;;;1.63;;
40501;SDS011;29631;49.168;9.848;2023-07-16T10:21:00;3.33;;;1.55;;
40501;SDS011;29631;49.168;9.848;2023-07-16T10:26:06;3.90;;;1.85;;
40501;SDS011;29631;49.168;9.848;2023-07-16T10:28:34;1.75;;;1.38;;
40501;SDS011;29631;49.168;9.848;2023-07-16T10:31:01;1.63;;;1.52;;
40501;SDS011;29631;49.168;9.848;2023-07-16T10:33:27;1.35;;;1.25;;
40501;SDS011;29631;49.168;9.848;2023-07-16T10:35:55;2.45;;;1.55;;
40501;SDS011;29631;49.168;9.848;2023-07-16T10:38:25;2.83;;;1.60;;
40501;SDS011;29631;49.168;9.848;2023-07-16T10:40:51;2.55;;;1.40;;
40501;SDS011;29631;49.168;9.848;2023-07-16T10:43:17;2.17;;;1.48;;
40501;SDS011;29631;49.168;9.848;2023-07-16T10:45:43;1.60;;;1.50;;
40501;SDS011;29631;49.168;9.848;2023-07-16T10:48:11;3.45;;;1.63;;
40501;SDS011;29631;49.168;9.848;2023-07-16T10:50:37;2.20;;;1.50;;
40501;SDS011;29631;49.168;9.848;2023-07-16T10:53:03;3.08;;;1.65;;
40501;SDS011;29631;49.168;9.848;2023-07-16T10:55:30;2.72;;;1.52;;
40501;SDS011;29631;49.168;9.848;2023-07-16T10:57:57;1.48;;;1.38;;
40501;SDS011;29631;49.168;9.848;2023-07-16T11:00:23;1.52;;;1.42;;
40501;SDS011;29631;49.168;9.848;2023-07-16T11:02:49;3.25;;;1.67;;
40501;SDS011;29631;49.168;9.848;2023-07-16T11:05:16;1.30;;;1.27;;
40501;SDS011;29631;49.168;9.848;2023-07-16T11:07:43;1.95;;;1.67;;
40501;SDS011;29631;49.168;9.848;2023-07-16T11:10:11;3.42;;;1.77;;
40501;SDS011;29631;49.168;9.848;2023-07-16T11:12:36;1.30;;;1.30;;
40501;SDS011;29631;49.168;9.848;2023-07-16T11:15:02;1.58;;;1.48;;
40501;SDS011;29631;49.168;9.848;2023-07-16T11:17:29;1.67;;;1.48;;
40501;SDS011;29631;49.168;9.848;2023-07-16T11:19:55;1.48;;;1.38;;
40501;SDS011;29631;49.168;9.848;2023-07-16T11:22:25;2.85;;;1.48;;
40501;SDS011;29631;49.168;9.848;2023-07-16T11:24:52;1.70;;;1.38;;
40501;SDS011;29631;49.168;9.848;2023-07-16T11:27:22;1.60;;;1.42;;
40501;SDS011;29631;49.168;9.848;2023-07-16T11:29:52;1.13;;;1.13;;
40501;SDS011;29631;49.168;9.848;2023-07-16T11:32:38;1.50;;;1.40;;
40501;SDS011;29631;49.168;9.848;2023-07-16T11:35:15;2.10;;;1.50;;
40501;SDS011;29631;49.168;9.848;2023-07-16T11:37:43;1.75;;;1.17;;
40501;SDS011;29631;49.168;9.848;2023-07-16T11:40:09;1.50;;;1.40;;
40501;SDS011;29631;49.168;9.848;2023-07-16T11:42:39;1.35;;;1.27;;
40501;SDS011;29631;49.168;9.848;2023-07-16T11:47:44;2.78;;;1.23;;
40501;SDS011;29631;49.168;9.848;2023-07-16T11:50:11;2.65;;;1.48;;
40501;SDS011;29631;49.168;9.848;2023-07-16T11:52:37;3.00;;;1.77;;
40501;SDS011;29631;49.168;9.848;2023-07-16T11:55:04;1.38;;;1.30;;
40501;SDS011;29631;49.168;9.848;2023-07-16T11:57:30;3.90;;;1.55;;
40501;SDS011;29631;49.168;9.848;2023-07-16T11:59:56;2.22;;;1.40;;
40501;SDS011;29631;49.168;9.848;2023-07-16T12:02:22;1.50;;;1.45;;
40501;SDS011;29631;49.168;9.848;2023-07-16T12:04:50;1.70;;;1.60;;
40501;SDS011;29631;49.168;9.848;2023-07-16T12:07:29;1.50;;;1.40;;
40501;SDS011;29631;49.168;9.848;2023-07-16T12:10:03;2.80;;;1.60;;
40501;SDS011;29631;49.168;9.848;2023-07-16T12:12:31;1.27;;;1.17;;
40501;SDS011;29631;49.168;9.848;2023-07-16T12:14:58;1.67;;;1.58;;
40501;SDS011;29631;49.168;9.848;2023-07-16T12:17:25;1.50;;;1.40;;
40501;SDS011;29631;49.168;9.848;2023-07-16T12:19:50;1.65;;;1.55;;
40501;SDS011;29631;49.168;9.848;2023-07-16T12:22:17;2.45;;;1.75;;
40501;SDS011;29631;49.168;9.848;2023-07-16T12:24:43;1.70;;;1.60;;
40501;SDS011;29631;49.168;9.848;2023-07-16T12:27:10;1.95;;;1.77;;
40501;SDS011;29631;49.168;9.848;2023-07-16T12:29:36;1.85;;;1.40;;
40501;SDS011;29631;49.168;9.848;2023-07-16T12:32:02;1.83;;;1.67;;
40501;SDS011;29631;49.168;9.848;2023-07-16T12:34:28;2.05;;;1.88;;
40501;SDS011;29631;49.168;9.848;2023-07-16T12:36:54;1.70;;;1.60;;
40501;SDS011;29631;49.168;9.848;2023-07-16T12:39:20;3.30;;;1.60;;
40501;SDS011;29631;49.168;9.848;2023-07-16T12:41:46;1.65;;;1.42;;
40501;SDS011;29631;49.168;9.848;2023-07-16T12:44:12;1.92;;;1.42;;
40501;SDS011;29631;49.168;9.848;2023-07-16T12:46:38;1.60;;;1.50;;
40501;SDS011;29631;49.168;9.848;2023-07-16T12:49:04;1.60;;;1.50;;
40501;SDS011;29631;49.168;9.848;2023-07-16T12:51:29;1.52;;;1.50;;
40501;SDS011;29631;49.168;9.848;2023-07-16T12:53:55;1.58;;;1.48;;
40501;SDS011;29631;49.168;9.848;2023-07-16T12:56:21;1.63;;;1.48;;
40501;SDS011;29631;49.168;9.848;2023-07-16T12:58:49;1.98;;;1.65;;
40501;SDS011;29631;49.168;9.848;2023-07-16T13:01:15;1.80;;;1.70;;
40501;SDS011;29631;49.168;9.848;2023-07-16T13:03:41;1.92;;;1.73;;
40501;SDS011;29631;49.168;9.848;2023-07-16T13:06:07;1.40;;;1.30;;
40501;SDS011;29631;49.168;9.848;2023-07-16T13:08:33;1.88;;;1.25;;
40501;SDS011;29631;49.168;9.848;2023-07-16T13:11:00;1.60;;;1.48;;
40501;SDS011;29631;49.168;9.848;2023-07-16T13:13:26;1.95;;;1.50;;
40501;SDS011;29631;49.168;9.848;2023-07-16T13:15:52;1.65;;;1.55;;
40501;SDS011;29631;49.168;9.848;2023-07-16T13:18:18;2.78;;;1.83;;
40501;SDS011;29631;49.168;9.848;2023-07-16T13:20:44;4.05;;;1.70;;
40501;SDS011;29631;49.168;9.848;2023-07-16T13:23:10;2.50;;;1.40;;
40501;SDS011;29631;49.168;9.848;2023-07-16T13:25:36;1.08;;;1.08;;
40501;SDS011;29631;49.168;9.848;2023-07-16T13:28:03;1.20;;;1.20;;
40501;SDS011;29631;49.168;9.848;2023-07-16T13:30:32;1.90;;;1.80;;
40501;SDS011;29631;49.168;9.848;2023-07-16T13:32:58;1.30;;;1.30;;
40501;SDS011;29631;49.168;9.848;2023-07-16T13:35:26;1.60;;;1.50;;
40501;SDS011;29631;49.168;9.848;2023-07-16T13:37:52;1.70;;;1.60;;
40501;SDS011;29631;49.168;9.848;2023-07-16T13:40:18;1.90;;;1.38;;
40501;SDS011;29631;49.168;9.848;2023-07-16T13:42:47;1.40;;;1.40;;
40501;SDS011;29631;49.168;9.848;2023-07-16T13:45:13;1.30;;;1.30;;
40501;SDS011;29631;49.168;9.848;2023-07-16T13:47:39;1.77;;;1.67;;
40501;SDS011;29631;49.168;9.848;2023-07-16T13:50:05;1.55;;;1.45;;
40501;SDS011;29631;49.168;9.848;2023-07-16T13:52:31;1.60;;;1.50;;
40501;SDS011;29631;49.168;9.848;2023-07-16T13:54:57;1.35;;;1.27;;
40501;SDS011;29631;49.168;9.848;2023-07-16T13:57:22;1.55;;;1.52;;
40501;SDS011;29631;49.168;9.848;2023-07-16T13:59:48;1.58;;;1.33;;
40501;SDS011;29631;49.168;9.848;2023-07-16T14:02:14;3.38;;;1.63;;
40501;SDS011;29631;49.168;9.848;2023-07-16T14:04:40;1.50;;;1.40;;
40501;SDS011;29631;49.168;9.848;2023-07-16T14:07:05;1.23;;;1.23;;
40501;SDS011;29631;49.168;9.848;2023-07-16T14:09:31;1.70;;;1.60;;
40501;SDS011;29631;49.168;9.848;2023-07-16T14:11:57;1.50;;;1.40;;
40501;SDS011;29631;49.168;9.848;2023-07-16T14:14:23;1.60;;;1.50;;
40501;SDS011;29631;49.168;9.848;2023-07-16T14:16:48;1.55;;;1.45;;
40501;SDS011;29631;49.168;9.848;2023-07-16T14:19:14;2.08;;;1.60;;
40501;SDS011;29631;49.168;9.848;2023-07-16T14:21:40;1.70;;;1.60;;
40501;SDS011;29631;49.168;9.848;2023-07-16T14:24:06;1.45;;;1.35;;
40501;SDS011;29631;49.168;9.848;2023-07-16T14:26:32;1.45;;;1.40;;
40501;SDS011;29631;49.168;9.848;2023-07-16T14:29:00;2.45;;;1.30;;
40501;SDS011;29631;49.168;9.848;2023-07-16T14:31:26;1.42;;;1.38;;
40501;SDS011;29631;49.168;9.848;2023-07-16T14:33:52;1.50;;;1.40;;
40501;SDS011;29631;49.168;9.848;2023-07-16T14:36:18;1.50;;;1.40;;
40501;SDS011;29631;49.168;9.848;2023-07-16T14:38:43;1.40;;;1.30;;
40501;SDS011;29631;49.168;9.848;2023-07-16T14:41:09;1.40;;;1.40;;
40501;SDS011;29631;49.168;9.848;2023-07-16T14:43:35;2.00;;;1.42;;
40501;SDS011;29631;49.168;9.848;2023-07-16T14:46:01;1.50;;;1.40;;
40501;SDS011;29631;49.168;9.848;2023-07-16T14:48:28;1.55;;;1.35;;
40501;SDS011;29631;49.168;9.848;2023-07-16T14:50:54;1.50;;;1.40;;
40501;SDS011;29631;49.168;9.848;2023-07-16T14:53:19;2.15;;;1.40;;
40501;SDS011;29631;49.168;9.848;2023-07-16T14:55:49;1.45;;;1.35;;
40501;SDS011;29631;49.168;9.848;2023-07-16T14:58:17;1.15;;;1.10;;
40501;SDS011;29631;49.168;9.848;2023-07-16T15:00:45;3.30;;;1.50;;